Latest Weather Observations for Condobolin Airport

IDN60801

Issued at 3:35 pm EST Thursday 24 April 2014 (issued every 30 minutes, with the page automatically refreshed every 10 minutes)

About weather observations | Map of weather stations | Latest weather observations for NSW | Other Formats
Station Details ID: 050137 Name: CONDOBOLIN AIRPORT AWS Lat: -33.07 Lon: 147.21 Height: 192.6 m
Data from the previous 72 hours. | See also: Recent months at Condobolin Airport
Date/Time
EST
Temp
°C
App
Temp
°C
Dew
Point
Rel
Hum
%
Delta-T
°C
Wind Press
QNH
hPa
Press
MSL
hPa
Rain
since 9 am
mm
Dir
 
Spd
km/h
Gust
km/h
Spd
kts
Gust
kts
24/03:30pm 24.9 21.7 8.4 35 8.9 S 15 28 8 15 1014.2 - 0.0
24/03:00pm 25.3 20.8 8.7 35 9.0 SW 22 30 12 16 1014.2 1013.9 0.0
24/02:30pm 25.2 20.8 9.1 36 8.8 SW 22 32 12 17 1014.2 - 0.0
24/02:00pm 25.6 21.4 9.8 37 8.8 S 22 28 12 15 1014.1 - 0.0
24/01:30pm 26.2 22.8 9.1 34 9.4 SW 17 24 9 13 1014.4 - 0.0
24/01:00pm 26.1 22.6 10.3 37 8.9 SSW 19 32 10 17 1014.6 - 0.0
24/12:30pm 25.4 21.8 8.4 34 9.2 SSW 17 26 9 14 1014.8 - 0.0
24/12:00pm 25.8 22.9 6.4 29 10.2 SW 11 24 6 13 1015.0 1014.6 0.0
24/11:30am 24.3 20.1 5.6 30 9.6 SW 17 26 9 14 1015.4 - 0.0
24/11:00am 24.1 20.6 5.5 30 9.5 WSW 13 17 7 9 1015.8 - 0.0
24/10:30am 22.2 18.6 5.2 33 8.5 WSW 13 17 7 9 1016.2 - 0.0
24/10:00am 20.9 16.7 5.7 37 7.6 W 17 28 9 15 1016.3 - 0.0
24/09:30am 21.1 16.5 6.6 39 7.4 WSW 20 24 11 13 1016.1 - 0.0
24/09:00am 20.6 19.3 6.2 39 7.3 N 2 6 1 3 1015.8 1015.4 0.0
24/08:30am 18.6 17.9 6.8 46 6.0 CALM 0 6 0 3 1015.5 - 0.0
24/08:00am 15.2 13.2 7.0 58 4.1 N 7 9 4 5 1015.3 - 0.0
24/07:30am 14.2 12.2 6.1 58 3.9 N 6 11 3 6 1014.8 - 0.0
24/07:00am 12.6 11.4 4.8 59 3.6 CALM 0 6 0 3 1014.2 - 0.0
24/06:30am 13.3 11.1 5.5 59 3.7 N 6 11 3 6 1013.8 - 0.0
24/06:00am 10.3 8.7 4.5 67 2.6 N 2 6 1 3 1013.5 1013.2 0.0
24/05:30am 10.2 8.4 5.2 71 2.3 N 4 7 2 4 1013.7 - 0.0
24/05:00am 10.8 9.4 3.8 62 3.1 CALM 0 6 0 3 1013.4 - 0.0
24/04:30am 15.0 12.4 3.2 45 5.4 N 6 11 3 6 1013.2 - 0.0
24/04:00am 15.3 13.2 3.8 46 5.3 N 4 7 2 4 1013.1 - 0.0
24/03:30am 13.7 10.7 4.0 52 4.5 N 9 11 5 6 1013.2 - 0.0
24/03:00am 15.3 13.9 3.8 46 5.3 CALM 0 0 0 0 1013.3 1013.0 0.0
24/02:30am 17.2 12.6 3.5 40 6.4 N 17 20 9 11 1013.6 - 0.0
24/02:00am 17.7 12.8 3.9 40 6.5 N 19 22 10 12 1013.8 - 0.0
24/01:30am 17.2 12.4 4.5 43 6.1 N 19 24 10 13 1014.1 - 0.0
24/01:00am 17.3 12.2 4.3 42 6.2 N 20 24 11 13 1014.1 - 0.0
24/12:30am 16.1 11.5 5.4 49 5.2 N 19 20 10 11 1014.4 - 0.0
24/12:00am 16.4 12.1 7.1 54 4.7 N 19 20 10 11 1014.5 1014.1 0.0
 
Date/Time
EST
Temp
°C
App
Temp
°C
Dew
Point
Rel
Hum
%
Delta-T
°C
Wind Press
QNH
hPa
Press
MSL
hPa
Rain
since 9 am
mm
Dir
 
Spd
km/h
Gust
km/h
Spd
kts
Gust
kts
23/11:30pm 16.1 12.1 6.5 53 4.7 N 17 20 9 11 1014.7 - 0.0
23/11:00pm 17.8 13.5 7.2 50 5.4 N 19 20 10 11 1014.8 - 0.0
23/10:30pm 16.2 12.3 7.2 55 4.5 N 17 20 9 11 1015.1 - 0.0
23/10:00pm 17.1 13.3 7.5 53 4.9 N 17 20 9 11 1015.1 - 0.0
23/09:30pm 16.3 12.6 8.0 58 4.2 N 17 19 9 10 1015.1 - 0.0
23/09:00pm 16.1 12.7 7.8 58 4.2 NNE 15 17 8 9 1015.0 1014.6 0.0
23/08:30pm 16.2 12.9 8.2 59 4.1 NNE 15 17 8 9 1015.1 - 0.0
23/08:00pm 17.3 13.7 8.2 55 4.7 N 17 19 9 10 1015.0 - 0.0
23/07:30pm 16.9 14.0 8.3 57 4.4 NNW 13 15 7 8 1015.0 - 0.0
23/07:00pm 17.0 14.2 8.7 58 4.3 NNW 13 15 7 8 1015.0 - 0.0
23/06:30pm 17.3 15.1 9.5 60 4.1 NNW 11 13 6 7 1014.8 - 0.0
23/06:00pm 17.7 15.0 8.8 56 4.6 NNW 13 13 7 7 1014.7 1014.3 0.0
23/05:30pm 21.2 18.7 8.1 43 6.9 NNW 11 13 6 7 1014.7 - 0.0
23/05:00pm 24.0 21.3 7.2 34 8.8 NNW 11 15 6 8 1014.6 - 0.0
23/04:30pm 26.5 24.2 5.5 26 10.9 NW 7 13 4 7 1014.6 - 0.0
23/04:00pm 27.6 24.8 5.2 24 11.6 NW 9 15 5 8 1014.6 - 0.0
23/03:30pm 27.3 24.6 5.6 25 11.3 NNW 9 19 5 10 1014.6 - 0.0
23/03:00pm 27.3 24.5 5.0 24 11.5 NW 9 17 5 9 1014.7 1014.3 0.0
23/02:30pm 26.9 23.4 3.4 22 11.8 N 11 17 6 9 1014.9 - 0.0
23/02:00pm 27.9 25.0 4.9 23 11.9 NNW 9 20 5 11 1014.9 - 0.0
23/01:30pm 27.1 24.4 5.4 25 11.3 NW 9 15 5 8 1015.3 - 0.0
23/01:00pm 27.0 24.5 6.4 27 10.9 NW 9 15 5 8 1015.7 - 0.0
23/12:30pm 26.3 23.6 5.8 27 10.7 NW 9 17 5 9 1016.3 - 0.0
23/12:00pm 26.2 23.8 6.8 29 10.3 NNW 9 17 5 9 1016.8 1016.5 0.0
23/11:30am 25.1 22.1 5.8 29 10.0 NNW 11 15 6 8 1017.2 - 0.0
23/11:00am 24.5 22.1 7.2 33 9.1 N 9 15 5 8 1017.5 - 0.0
23/10:30am 23.6 20.4 6.8 34 8.8 N 13 17 7 9 1017.8 - 0.0
23/10:00am 22.4 19.9 8.1 40 7.6 NNE 11 15 6 8 1018.0 - 0.0
23/09:30am 20.9 18.5 8.5 45 6.6 NNE 11 17 6 9 1018.1 - 0.0
23/09:00am 19.2 15.9 8.2 49 5.7 NNE 15 20 8 11 1018.1 1017.8 0.0
23/08:30am 16.6 13.7 8.3 58 4.3 NNE 13 17 7 9 1018.0 - 0.0
23/08:00am 14.9 12.2 8.8 67 3.1 N 13 19 7 10 1017.9 - 0.0
23/07:30am 10.7 10.2 9.3 91 0.7 NNW 2 6 1 3 1017.9 - 0.0
23/07:00am 8.2 6.2 7.1 93 0.5 NNW 7 7 4 4 1017.8 - 0.0
23/06:30am 7.5 5.1 5.3 86 1.0 NNW 7 9 4 5 1017.7 - 0.0
23/06:00am 8.0 7.0 5.8 86 1.0 CALM 0 0 0 0 1017.5 1017.2 0.0
23/05:30am 8.4 7.6 6.5 88 0.9 CALM 0 0 0 0 1017.3 - 0.0
23/05:00am 8.4 7.6 6.4 87 0.9 CALM 0 0 0 0 1017.2 - 0.0
23/04:30am 8.3 7.5 6.3 87 0.9 CALM 0 6 0 3 1016.9 - 0.0
23/04:00am 8.3 6.3 6.3 87 0.9 NNW 6 9 3 5 1016.5 - 0.0
23/03:30am 8.2 6.9 6.0 86 1.0 NNW 2 6 1 3 1016.4 - 0.0
23/03:00am 8.9 8.1 6.7 86 1.0 CALM 0 0 0 0 1016.6 1016.3 0.0
23/02:30am 8.6 6.6 6.4 86 1.0 NNW 6 7 3 4 1016.6 - 0.0
23/02:00am 8.7 6.8 6.8 88 0.9 NNW 6 7 3 4 1016.7 - 0.0
23/01:30am 8.1 5.6 6.4 89 0.8 NNW 9 11 5 6 1016.9 - 0.0
23/01:00am 8.2 6.1 6.5 89 0.8 NNW 7 11 4 6 1017.2 - 0.0
23/12:30am 8.3 5.8 6.4 88 0.9 NNW 9 11 5 6 1017.3 - 0.0
23/12:00am 8.7 6.6 6.8 88 0.9 NNW 7 13 4 7 1017.4 1017.1 0.0
 
Date/Time
EST
Temp
°C
App
Temp
°C
Dew
Point
Rel
Hum
%
Delta-T
°C
Wind Press
QNH
hPa
Press
MSL
hPa
Rain
since 9 am
mm
Dir
 
Spd
km/h
Gust
km/h
Spd
kts
Gust
kts
22/11:30pm 8.7 6.6 6.7 87 0.9 NNW 7 7 4 4 1017.6 - 0.0
22/11:00pm 9.0 6.9 6.8 86 1.0 NNW 7 7 4 4 1017.9 - 0.0
22/10:30pm 9.8 7.8 7.1 83 1.3 NNW 7 9 4 5 1018.2 - 0.0
22/10:00pm 9.8 7.8 7.1 83 1.3 NNW 7 9 4 5 1018.2 - 0.0
22/09:30pm 9.9 7.9 7.0 82 1.4 NNW 7 9 4 5 1018.2 - 0.0
22/09:00pm 10.3 8.2 6.8 79 1.7 NNW 7 7 4 4 1018.1 1017.8 0.0
22/08:30pm 11.2 8.8 7.1 76 2.0 NNW 9 11 5 6 1017.9 - 0.0
22/08:00pm 12.6 10.4 7.7 72 2.4 NNW 9 11 5 6 1017.8 - 0.0
22/07:30pm 11.8 9.5 7.5 75 2.1 NNW 9 11 5 6 1017.7 - 0.0
22/07:00pm 13.1 11.1 7.3 68 2.9 NNW 7 11 4 6 1017.5 - 0.0
22/06:30pm 13.8 11.6 8.0 68 2.9 NNW 9 9 5 5 1017.3 - 0.0
22/06:00pm 15.1 12.7 7.2 59 3.9 NNW 9 11 5 6 1017.1 1016.8 0.0
22/05:30pm 18.9 15.7 6.7 45 6.2 NNW 13 13 7 7 1016.8 - 0.0
22/05:00pm 22.1 19.1 5.9 35 8.2 NNW 11 17 6 9 1016.7 - 0.0
22/04:30pm 23.1 20.2 6.4 34 8.6 NNW 11 17 6 9 1016.6 - 0.0
22/04:00pm 23.3 20.2 5.7 32 9.0 NNW 11 19 6 10 1016.7 - 0.0
22/03:30pm 23.6 20.1 5.5 31 9.2 N 13 19 7 10 1016.8 - 0.0
22/03:00pm 23.6 19.6 5.0 30 9.4 NNW 15 20 8 11 1016.7 1016.4 0.0
22/02:30pm 23.6 20.0 5.0 30 9.4 NNW 13 20 7 11 1016.8 - 0.0
22/02:00pm 24.5 20.4 4.3 27 10.1 NW 15 22 8 12 1016.8 - 0.0
22/01:30pm 23.5 19.8 6.3 33 8.9 NNW 15 26 8 14 1017.1 - 0.0
22/01:00pm 23.9 20.5 7.5 35 8.7 NW 15 22 8 12 1017.6 - 0.0
22/12:30pm 22.8 19.1 6.1 34 8.6 NNW 15 20 8 11 1018.1 - 0.0
22/12:00pm 22.2 18.5 6.4 36 8.1 NNW 15 22 8 12 1018.8 1018.5 0.0
22/11:30am 21.9 18.4 7.3 39 7.6 N 15 20 8 11 1019.1 - 0.0
22/11:00am 20.8 17.3 7.4 42 6.9 N 15 22 8 12 1019.4 - 0.0
22/10:30am 20.0 17.2 8.7 48 6.0 NNW 13 17 7 9 1019.8 - 0.0
22/10:00am 19.4 17.2 7.8 47 6.0 N 9 19 5 10 1019.9 - 0.0
22/09:30am 17.1 17.0 9.5 61 4.0 CALM 0 11 0 6 1020.0 - 0.0
22/09:00am 13.9 13.9 9.7 76 2.2 CALM 0 0 0 0 1020.1 1019.7 0.0
22/08:30am 10.5 10.3 9.1 91 0.7 CALM 0 0 0 0 1019.9 - 0.0
22/08:00am 7.6 6.9 6.9 95 0.3 CALM 0 0 0 0 1019.6 - 0.0
22/07:30am 6.0 4.9 5.0 93 0.4 CALM 0 0 0 0 1019.4 - 0.0
22/07:00am 5.6 4.4 4.7 94 0.4 CALM 0 0 0 0 1019.1 - 0.0
22/06:30am 5.3 3.6 4.1 92 0.5 N 2 7 1 4 1018.8 - 0.0
22/06:00am 5.8 3.9 4.8 93 0.4 N 4 7 2 4 1018.5 1018.2 0.0
22/05:30am 5.5 3.8 4.2 91 0.6 N 2 6 1 3 1018.5 - 0.0
22/05:00am 6.6 5.6 5.4 92 0.5 CALM 0 0 0 0 1018.7 - 0.0
22/04:30am 6.1 4.9 4.4 89 0.7 CALM 0 0 0 0 1018.7 - 0.0
22/04:00am 6.6 5.5 5.1 90 0.7 CALM 0 0 0 0 1018.6 - 0.0
22/03:30am 6.5 5.3 4.8 89 0.7 CALM 0 6 0 3 1018.4 - 0.0
22/03:00am 6.3 5.1 4.5 88 0.8 CALM 0 0 0 0 1018.3 1018.0 0.0
22/02:30am 7.2 6.1 5.3 88 0.9 CALM 0 0 0 0 1018.7 - 0.0
22/02:00am 7.2 6.2 5.5 89 0.8 CALM 0 0 0 0 1019.0 - 0.0
22/01:30am 6.9 5.8 5.1 88 0.8 CALM 0 0 0 0 1019.1 - 0.0
22/01:00am 7.5 5.4 5.8 89 0.8 N 6 7 3 4 1019.4 - 0.0
22/12:30am 7.1 4.7 5.1 87 0.9 N 7 9 4 5 1019.6 - 0.0
22/12:00am 7.7 5.4 5.5 86 1.0 N 7 7 4 4 1019.8 1019.4 0.0
 
Date/Time
EST
Temp
°C
App
Temp
°C
Dew
Point
Rel
Hum
%
Delta-T
°C
Wind Press
QNH
hPa
Press
MSL
hPa
Rain
since 9 am
mm
Dir
 
Spd
km/h
Gust
km/h
Spd
kts
Gust
kts
21/11:30pm 8.0 5.8 5.5 84 1.1 N 6 7 3 4 1020.1 - 0.0
21/11:00pm 8.1 7.2 5.9 86 1.0 CALM 0 0 0 0 1020.3 - 0.0
21/10:30pm 8.2 7.2 5.8 85 1.1 CALM 0 0 0 0 1020.4 - 0.0
21/10:00pm 8.0 6.1 4.9 81 1.4 N 4 6 2 3 1020.4 - 0.0
21/09:30pm 9.3 7.9 5.7 78 1.7 N 2 7 1 4 1020.6 - 0.0
21/09:00pm 10.0 7.4 6.2 77 1.8 N 9 11 5 6 1020.4 1020.0 0.0
21/08:30pm 9.8 7.3 6.5 80 1.6 N 9 11 5 6 1020.2 - 0.0
21/08:00pm 10.6 8.2 6.9 78 1.8 N 9 11 5 6 1020.3 - 0.0
21/07:30pm 10.9 8.9 6.3 73 2.2 N 6 7 3 4 1020.1 - 0.0
21/07:00pm 14.2 13.3 6.1 58 3.9 CALM 0 0 0 0 1020.0 - 0.0
21/06:30pm 14.9 12.5 5.4 53 4.5 N 7 9 4 5 1019.9 - 0.0
21/06:00pm 16.1 13.7 5.1 48 5.3 N 7 9 4 5 1019.4 1019.1 0.0
21/05:30pm 17.6 15.3 5.5 45 5.9 N 7 9 4 5 1019.2 - 0.0
21/05:00pm 18.8 16.0 5.3 41 6.6 N 9 11 5 6 1019.2 - 0.0
21/04:30pm 19.7 17.2 5.0 38 7.2 N 7 13 4 7 1019.2 - 0.0
21/04:00pm 20.5 19.0 4.9 36 7.7 N 2 7 1 4 1019.1 - 0.0

Other Formats:

Comma delimited format used in spreadsheet applications
http://www.bom.gov.au/fwo/IDN60801/IDN60801.95708.axf

JavaScript Object Notation format (JSON) in row-major order
http://www.bom.gov.au/fwo/IDN60801/IDN60801.95708.json